createdAt,value
2023-05-20T00:01:55.702Z,99.90
2023-05-20T00:04:22.744Z,99.90
2023-05-20T00:06:49.654Z,99.90
2023-05-20T00:09:17.337Z,99.90
2023-05-20T00:11:44.355Z,99.90
2023-05-20T00:14:11.202Z,99.90
2023-05-20T00:16:38.213Z,99.90
2023-05-20T00:19:05.113Z,99.90
2023-05-20T00:21:32.036Z,99.90
2023-05-20T00:23:58.945Z,99.90
2023-05-20T00:26:26.617Z,99.90
2023-05-20T00:28:53.376Z,99.90
2023-05-20T00:31:20.166Z,99.90
2023-05-20T00:33:47.024Z,99.90
2023-05-20T00:36:13.779Z,99.90
2023-05-20T00:38:40.636Z,99.90
2023-05-20T00:41:07.480Z,99.90
2023-05-20T00:43:34.252Z,99.90
2023-05-20T00:46:01.876Z,99.90
2023-05-20T00:48:40.099Z,99.90
2023-05-20T00:51:07.753Z,99.90
2023-05-20T00:53:36.550Z,99.90
2023-05-20T00:56:04.544Z,99.90
2023-05-20T00:58:32.088Z,99.90
2023-05-20T01:00:58.976Z,99.90
2023-05-20T01:03:26.209Z,99.90
2023-05-20T01:05:53.108Z,99.90
2023-05-20T01:08:20.509Z,99.90
2023-05-20T01:10:53.254Z,99.90
2023-05-20T01:13:24.569Z,99.90
2023-05-20T01:15:55.913Z,99.90
2023-05-20T01:18:25.566Z,99.90
2023-05-20T01:20:54.712Z,99.90
2023-05-20T01:23:21.935Z,99.90
2023-05-20T01:25:48.652Z,99.90
2023-05-20T01:28:17.951Z,99.90
2023-05-20T01:30:51.653Z,99.90
2023-05-20T01:33:21.920Z,99.90
2023-05-20T01:35:48.889Z,99.90
2023-05-20T01:38:16.957Z,99.90
2023-05-20T01:40:44.162Z,99.90
2023-05-20T01:43:11.744Z,99.90
2023-05-20T01:45:41.276Z,99.90
2023-05-20T01:48:11.669Z,99.90
2023-05-20T01:50:38.605Z,99.90
2023-05-20T01:53:08.241Z,99.90
2023-05-20T01:55:35.627Z,99.90
2023-05-20T01:58:02.969Z,99.90
2023-05-20T02:00:29.831Z,99.90
2023-05-20T02:02:56.718Z,99.90
2023-05-20T02:05:23.514Z,99.90
2023-05-20T02:07:50.289Z,99.90
2023-05-20T02:10:17.085Z,99.90
2023-05-20T02:12:43.886Z,99.90
2023-05-20T02:15:10.733Z,99.90
2023-05-20T02:17:37.553Z,99.90
2023-05-20T02:20:06.609Z,99.90
2023-05-20T02:22:33.645Z,99.90
2023-05-20T02:25:00.449Z,99.90
2023-05-20T02:27:27.210Z,99.90
2023-05-20T02:29:54.073Z,99.90
2023-05-20T02:32:21.473Z,99.90
2023-05-20T02:34:48.241Z,99.90
2023-05-20T02:37:14.994Z,99.90
2023-05-20T02:39:41.880Z,99.90
2023-05-20T02:42:08.615Z,99.90
2023-05-20T02:44:35.732Z,99.90
2023-05-20T02:47:02.499Z,99.90
2023-05-20T02:49:29.270Z,99.90
2023-05-20T02:51:56.454Z,99.90
2023-05-20T02:54:23.364Z,99.90
2023-05-20T02:56:50.079Z,99.90
2023-05-20T02:59:16.909Z,99.90
2023-05-20T03:01:43.719Z,99.90
2023-05-20T03:04:10.558Z,99.90
2023-05-20T03:06:38.186Z,99.90
2023-05-20T03:09:05.897Z,99.90
2023-05-20T03:11:32.627Z,99.90
2023-05-20T03:13:59.722Z,99.90
2023-05-20T03:16:28.174Z,99.90
2023-05-20T03:18:55.157Z,99.90
2023-05-20T03:21:24.054Z,99.90
2023-05-20T03:23:51.044Z,99.90
2023-05-20T03:26:17.931Z,99.90
2023-05-20T03:28:44.680Z,99.90
2023-05-20T03:31:11.501Z,99.90
2023-05-20T03:33:38.331Z,99.90
2023-05-20T03:36:06.612Z,99.90
2023-05-20T03:38:33.385Z,99.90
2023-05-20T03:41:00.145Z,99.90
2023-05-20T03:43:27.889Z,99.90
2023-05-20T03:45:54.626Z,99.90
2023-05-20T03:48:21.392Z,99.90
2023-05-20T03:50:48.170Z,99.90
2023-05-20T03:53:14.987Z,99.90
2023-05-20T03:55:42.456Z,99.90
2023-05-20T03:58:09.217Z,99.90
2023-05-20T04:00:36.300Z,99.90
2023-05-20T04:03:03.335Z,99.90
2023-05-20T04:05:30.190Z,99.90
2023-05-20T04:07:57.583Z,99.90
2023-05-20T04:10:24.367Z,99.90
2023-05-20T04:12:51.124Z,99.90
2023-05-20T04:15:18.049Z,99.90
2023-05-20T04:17:48.456Z,99.90
2023-05-20T04:20:15.451Z,99.90
2023-05-20T04:22:42.398Z,99.90
2023-05-20T04:25:09.863Z,99.90
2023-05-20T04:27:39.718Z,99.90
2023-05-20T04:30:07.861Z,99.90
2023-05-20T04:32:34.745Z,99.90
2023-05-20T04:35:08.423Z,99.90
2023-05-20T04:37:37.457Z,99.90
2023-05-20T04:40:06.680Z,99.90
2023-05-20T04:42:37.831Z,99.90
2023-05-20T04:45:05.831Z,99.90
2023-05-20T04:47:39.200Z,99.90
2023-05-20T04:50:11.400Z,99.90
2023-05-20T04:52:42.928Z,99.90
2023-05-20T04:55:10.700Z,99.90
2023-05-20T04:57:44.261Z,99.90
2023-05-20T05:00:12.622Z,99.90
2023-05-20T05:02:39.731Z,99.90
2023-05-20T05:05:07.211Z,99.90
2023-05-20T05:07:34.073Z,99.90
2023-05-20T05:10:01.272Z,99.90
2023-05-20T05:12:28.136Z,99.90
2023-05-20T05:14:54.951Z,99.90
2023-05-20T05:17:21.760Z,99.90
2023-05-20T05:19:48.542Z,99.90
2023-05-20T05:22:15.338Z,99.90
2023-05-20T05:24:42.127Z,99.90
2023-05-20T05:27:08.884Z,99.90
2023-05-20T05:29:35.734Z,99.90
2023-05-20T05:32:02.610Z,99.90
2023-05-20T05:34:29.517Z,99.90
2023-05-20T05:36:56.273Z,99.90
2023-05-20T05:39:23.009Z,99.90
2023-05-20T05:41:49.801Z,99.90
2023-05-20T05:44:16.530Z,99.90
2023-05-20T05:46:43.347Z,99.90
2023-05-20T05:49:10.164Z,99.90
2023-05-20T05:51:38.982Z,99.90
2023-05-20T05:54:06.067Z,99.90
2023-05-20T05:56:32.875Z,99.90
2023-05-20T05:58:59.685Z,99.90
2023-05-20T06:01:26.584Z,99.90
2023-05-20T06:03:53.882Z,99.90
2023-05-20T06:06:20.822Z,99.90
2023-05-20T06:08:47.652Z,99.90
2023-05-20T06:11:14.419Z,99.90
2023-05-20T06:13:41.284Z,99.90
2023-05-20T06:16:08.174Z,99.90
2023-05-20T06:18:34.982Z,99.90
2023-05-20T06:21:03.395Z,99.90
2023-05-20T06:23:30.601Z,99.90
2023-05-20T06:26:00.973Z,99.90
2023-05-20T06:28:27.790Z,99.90
2023-05-20T06:30:55.041Z,99.90
2023-05-20T06:33:26.098Z,99.90
2023-05-20T06:35:53.720Z,99.90
2023-05-20T06:38:20.790Z,99.90
2023-05-20T06:40:49.130Z,99.90
2023-05-20T06:43:16.866Z,99.90
2023-05-20T06:45:44.156Z,99.90
2023-05-20T06:48:11.271Z,99.90
2023-05-20T06:50:38.542Z,99.90
2023-05-20T06:53:05.355Z,99.90
2023-05-20T06:55:32.291Z,99.90
2023-05-20T06:57:59.193Z,99.90
2023-05-20T07:00:26.124Z,99.90
2023-05-20T07:02:52.942Z,99.90
2023-05-20T07:05:19.906Z,99.90
2023-05-20T07:07:46.694Z,99.90
2023-05-20T07:10:13.445Z,99.90
2023-05-20T07:12:40.273Z,99.90
2023-05-20T07:15:07.773Z,99.90
2023-05-20T07:17:34.559Z,99.90
2023-05-20T07:20:01.324Z,99.90
2023-05-20T07:22:28.093Z,99.90
2023-05-20T07:24:54.895Z,99.90
2023-05-20T07:27:21.666Z,99.90
2023-05-20T07:29:48.431Z,99.90
2023-05-20T07:32:15.588Z,99.90
2023-05-20T07:34:42.343Z,99.90
2023-05-20T07:37:10.111Z,99.90
2023-05-20T07:39:36.975Z,99.90
2023-05-20T07:42:04.020Z,99.90
2023-05-20T07:44:30.776Z,99.90
2023-05-20T07:46:57.549Z,99.90
2023-05-20T07:49:24.310Z,99.90
2023-05-20T07:51:51.155Z,99.90
2023-05-20T07:54:18.125Z,99.90
2023-05-20T07:56:44.961Z,99.90
2023-05-20T07:59:11.794Z,99.90
2023-05-20T08:01:40.826Z,99.90
2023-05-20T08:04:07.851Z,99.90
2023-05-20T08:06:35.395Z,99.90
2023-05-20T08:09:02.771Z,99.90
2023-05-20T08:11:29.524Z,99.90
2023-05-20T08:13:56.478Z,99.90
2023-05-20T08:16:23.339Z,99.90
2023-05-20T08:18:50.127Z,97.90
2023-05-20T08:21:17.181Z,96.00
2023-05-20T08:23:44.149Z,95.50
2023-05-20T08:26:10.974Z,94.30
2023-05-20T08:28:38.224Z,93.40
2023-05-20T08:31:05.146Z,93.50
2023-05-20T08:33:32.076Z,92.20
2023-05-20T08:35:59.198Z,89.10
2023-05-20T08:38:26.173Z,81.90
2023-05-20T08:40:57.295Z,72.80
2023-05-20T08:43:24.723Z,71.00
2023-05-20T08:45:55.004Z,67.40
2023-05-20T08:48:25.718Z,66.60
2023-05-20T08:50:53.757Z,68.00
2023-05-20T08:53:23.596Z,72.20
2023-05-20T08:56:01.345Z,72.10
2023-05-20T08:58:32.869Z,73.90
2023-05-20T09:01:00.932Z,72.90
2023-05-20T09:03:28.014Z,72.60
2023-05-20T09:06:03.389Z,74.40
2023-05-20T09:08:30.864Z,72.90
2023-05-20T09:10:57.681Z,72.80
2023-05-20T09:13:24.765Z,72.20
2023-05-20T09:15:51.669Z,70.10
2023-05-20T09:18:18.655Z,68.90
2023-05-20T09:20:48.083Z,65.80
2023-05-20T09:23:14.852Z,65.30
2023-05-20T09:25:41.608Z,63.40
2023-05-20T09:28:09.317Z,63.60
2023-05-20T09:30:36.631Z,64.90
2023-05-20T09:33:05.284Z,62.00
2023-05-20T09:35:37.469Z,62.70
2023-05-20T09:38:09.420Z,61.80
2023-05-20T09:40:40.396Z,64.70
2023-05-20T09:43:08.212Z,62.30
2023-05-20T09:45:35.304Z,64.20
2023-05-20T09:48:03.874Z,65.50
2023-05-20T09:50:32.126Z,66.20
2023-05-20T09:53:03.650Z,68.70
2023-05-20T09:55:31.107Z,68.60
2023-05-20T09:58:01.848Z,67.90
2023-05-20T10:00:28.953Z,68.80
2023-05-20T10:02:56.307Z,70.40
2023-05-20T10:05:39.751Z,69.20
2023-05-20T10:08:31.648Z,69.90
2023-05-20T10:11:23.078Z,71.00
2023-05-20T10:14:16.051Z,72.20
2023-05-20T10:17:08.750Z,73.20
2023-05-20T10:19:36.240Z,73.80
2023-05-20T10:22:09.204Z,74.90
2023-05-20T10:24:41.302Z,74.80
2023-05-20T10:27:14.231Z,73.60
2023-05-20T10:30:00.117Z,73.40
2023-05-20T10:32:27.716Z,72.50
2023-05-20T10:35:04.943Z,72.90
2023-05-20T10:37:43.472Z,72.50
2023-05-20T10:40:14.551Z,71.50
2023-05-20T10:42:42.745Z,71.10
2023-05-20T10:45:10.559Z,70.40
2023-05-20T10:47:42.425Z,68.10
2023-05-20T10:50:27.562Z,66.60
2023-05-20T10:52:54.721Z,66.80
2023-05-20T10:55:22.546Z,65.90
2023-05-20T10:57:49.331Z,66.60
2023-05-20T11:00:16.706Z,67.10
2023-05-20T11:02:44.604Z,67.60
2023-05-20T11:05:13.983Z,69.20
2023-05-20T11:07:40.826Z,68.80
2023-05-20T11:10:11.052Z,67.70
2023-05-20T11:12:37.821Z,68.10
2023-05-20T11:15:05.164Z,66.10
2023-05-20T11:17:31.991Z,66.30
2023-05-20T11:20:00.952Z,65.90
2023-05-20T11:22:28.938Z,66.00
2023-05-20T11:24:55.797Z,66.90
2023-05-20T11:27:22.558Z,67.70
2023-05-20T11:29:50.921Z,67.30
2023-05-20T11:32:20.323Z,67.20
2023-05-20T11:34:52.477Z,67.00
2023-05-20T11:37:20.169Z,65.80
2023-05-20T11:39:47.132Z,66.40
2023-05-20T11:42:16.561Z,66.40
2023-05-20T11:44:45.275Z,66.90
2023-05-20T11:47:12.048Z,67.70
2023-05-20T11:49:42.080Z,69.00
2023-05-20T11:52:11.111Z,69.00
2023-05-20T11:54:38.010Z,69.30
2023-05-20T11:57:06.965Z,68.40
2023-05-20T11:59:34.551Z,67.90
2023-05-20T12:02:01.311Z,67.20
2023-05-20T12:04:28.116Z,67.00
2023-05-20T12:06:55.828Z,65.90
2023-05-20T12:09:22.715Z,65.90
2023-05-20T12:11:49.626Z,65.50
2023-05-20T12:14:16.460Z,66.00
2023-05-20T12:16:43.233Z,66.90
2023-05-20T12:19:10.068Z,66.10
2023-05-20T12:21:36.969Z,66.10
2023-05-20T12:24:06.775Z,66.10
2023-05-20T12:26:35.203Z,66.10
2023-05-20T12:29:01.954Z,66.80
2023-05-20T12:31:29.051Z,67.30
2023-05-20T12:33:56.393Z,67.50
2023-05-20T12:36:23.168Z,67.10
2023-05-20T12:38:49.925Z,66.40
2023-05-20T12:41:16.704Z,67.00
2023-05-20T12:43:43.443Z,66.20
2023-05-20T12:46:10.361Z,64.60
2023-05-20T12:48:37.300Z,64.30
2023-05-20T12:51:04.381Z,65.40
2023-05-20T12:53:31.209Z,64.80
2023-05-20T12:55:58.078Z,63.70
2023-05-20T12:58:24.793Z,63.70
2023-05-20T13:00:51.580Z,63.00
2023-05-20T13:03:18.598Z,63.70
2023-05-20T13:05:45.831Z,62.40
2023-05-20T13:08:14.664Z,62.60
2023-05-20T13:10:41.530Z,62.40
2023-05-20T13:13:08.281Z,63.50
2023-05-20T13:15:35.510Z,62.70
2023-05-20T13:18:03.521Z,62.70
2023-05-20T13:20:30.989Z,63.30
2023-05-20T13:22:58.049Z,63.40
2023-05-20T13:25:24.844Z,65.00
2023-05-20T13:27:51.715Z,65.00
2023-05-20T13:30:18.480Z,62.80
2023-05-20T13:32:46.223Z,64.30
2023-05-20T13:35:13.208Z,64.30
2023-05-20T13:37:40.019Z,65.40
2023-05-20T13:40:07.524Z,65.90
2023-05-20T13:42:34.511Z,66.80
2023-05-20T13:45:01.249Z,67.90
2023-05-20T13:47:28.175Z,68.90
2023-05-20T13:49:55.038Z,68.70
2023-05-20T13:52:21.786Z,69.40
2023-05-20T13:54:48.770Z,69.20
2023-05-20T13:57:16.010Z,69.60
2023-05-20T13:59:42.917Z,69.80
2023-05-20T14:02:09.824Z,69.70
2023-05-20T14:04:39.371Z,70.40
2023-05-20T14:07:09.075Z,69.70
2023-05-20T14:09:36.708Z,68.80
2023-05-20T14:12:03.874Z,66.90
2023-05-20T14:14:30.658Z,67.90
2023-05-20T14:16:57.647Z,67.10
2023-05-20T14:19:24.495Z,69.50
2023-05-20T14:21:51.699Z,68.70
2023-05-20T14:24:18.504Z,67.40
2023-05-20T14:26:45.291Z,66.20
2023-05-20T14:29:12.038Z,65.30
2023-05-20T14:31:39.387Z,67.00
2023-05-20T14:34:06.311Z,67.80
2023-05-20T14:36:33.104Z,67.00
2023-05-20T14:38:59.874Z,67.80
2023-05-20T14:41:26.621Z,67.70
2023-05-20T14:43:53.443Z,69.00
2023-05-20T14:46:20.495Z,68.20
2023-05-20T14:48:47.472Z,69.10
2023-05-20T14:51:14.271Z,70.00
2023-05-20T14:53:41.080Z,69.90
2023-05-20T14:56:07.964Z,71.10
2023-05-20T14:58:35.777Z,71.20
2023-05-20T15:01:02.623Z,71.10
2023-05-20T15:03:29.766Z,70.30
2023-05-20T15:05:56.729Z,71.30
2023-05-20T15:08:23.502Z,70.80
2023-05-20T15:10:51.061Z,71.80
2023-05-20T15:13:17.869Z,72.30
2023-05-20T15:15:45.001Z,72.40
2023-05-20T15:18:11.842Z,73.30
2023-05-20T15:20:38.733Z,72.90
2023-05-20T15:23:06.091Z,71.40
2023-05-20T15:25:33.001Z,69.60
2023-05-20T15:27:59.875Z,71.00
2023-05-20T15:30:26.626Z,70.80
2023-05-20T15:32:53.589Z,70.40
2023-05-20T15:35:20.775Z,70.50
2023-05-20T15:37:47.520Z,71.80
2023-05-20T15:40:15.811Z,71.80
2023-05-20T15:42:43.027Z,71.10
2023-05-20T15:45:10.258Z,71.20
2023-05-20T15:47:39.913Z,71.20
2023-05-20T15:50:08.604Z,71.30
2023-05-20T15:52:35.734Z,72.40
2023-05-20T15:55:02.819Z,73.50
2023-05-20T15:57:30.731Z,72.50
2023-05-20T15:59:57.746Z,72.60
2023-05-20T16:02:25.056Z,73.20
2023-05-20T16:04:52.449Z,73.10
2023-05-20T16:07:19.325Z,71.80
2023-05-20T16:09:46.246Z,72.20
2023-05-20T16:12:13.065Z,73.40
2023-05-20T16:14:39.814Z,73.90
2023-05-20T16:17:06.589Z,74.40
2023-05-20T16:19:33.512Z,74.70
2023-05-20T16:22:00.459Z,75.00
2023-05-20T16:24:27.261Z,75.10
2023-05-20T16:26:54.167Z,76.10
2023-05-20T16:29:21.398Z,76.20
2023-05-20T16:31:48.218Z,76.40
2023-05-20T16:34:16.416Z,76.40
2023-05-20T16:36:45.240Z,76.20
2023-05-20T16:39:12.847Z,76.70
2023-05-20T16:41:39.652Z,77.40
2023-05-20T16:44:06.677Z,77.30
2023-05-20T16:46:33.689Z,77.80
2023-05-20T16:49:00.654Z,77.50
2023-05-20T16:51:27.785Z,77.80
2023-05-20T16:53:54.553Z,77.40
2023-05-20T16:56:22.260Z,77.50
2023-05-20T16:58:51.970Z,78.00
2023-05-20T17:01:20.070Z,77.80
2023-05-20T17:03:46.946Z,78.30
2023-05-20T17:06:13.746Z,78.30
2023-05-20T17:08:40.577Z,78.90
2023-05-20T17:11:07.344Z,79.20
2023-05-20T17:13:34.135Z,80.00
2023-05-20T17:16:01.059Z,79.90
2023-05-20T17:18:27.821Z,80.80
2023-05-20T17:20:54.570Z,81.50
2023-05-20T17:23:21.423Z,81.90
2023-05-20T17:25:48.189Z,82.10
2023-05-20T17:28:14.983Z,82.60
2023-05-20T17:30:41.781Z,82.20
2023-05-20T17:33:08.620Z,82.00
2023-05-20T17:35:36.599Z,82.10
2023-05-20T17:38:03.422Z,83.30
2023-05-20T17:40:30.220Z,82.80
2023-05-20T17:42:57.014Z,83.30
2023-05-20T17:45:23.866Z,83.40
2023-05-20T17:47:51.320Z,83.30
2023-05-20T17:50:18.154Z,83.50
2023-05-20T17:52:44.884Z,83.90
2023-05-20T17:55:12.897Z,84.40
2023-05-20T17:57:39.697Z,85.20
2023-05-20T18:00:10.186Z,85.20
2023-05-20T18:02:38.335Z,85.60
2023-05-20T18:05:06.436Z,86.40
2023-05-20T18:07:34.471Z,86.30
2023-05-20T18:10:01.581Z,86.50
2023-05-20T18:12:28.415Z,87.20
2023-05-20T18:14:55.444Z,87.50
2023-05-20T18:17:22.238Z,87.60
2023-05-20T18:19:49.271Z,87.90
2023-05-20T18:22:16.043Z,88.30
2023-05-20T18:24:42.813Z,88.70
2023-05-20T18:27:09.586Z,89.80
2023-05-20T18:29:36.333Z,89.50
2023-05-20T18:32:03.323Z,89.70
2023-05-20T18:34:30.304Z,90.10
2023-05-20T18:36:57.076Z,90.30
2023-05-20T18:39:23.822Z,90.50
2023-05-20T18:41:50.682Z,90.70
2023-05-20T18:44:19.082Z,90.90
2023-05-20T18:46:46.178Z,91.20
2023-05-20T18:49:13.143Z,91.30
2023-05-20T18:51:40.802Z,91.40
2023-05-20T18:54:07.941Z,91.70
2023-05-20T18:56:34.811Z,92.00
2023-05-20T18:59:01.678Z,92.10
2023-05-20T19:01:28.601Z,92.30
2023-05-20T19:03:55.716Z,92.80
2023-05-20T19:06:22.693Z,93.00
2023-05-20T19:08:49.619Z,93.20
2023-05-20T19:11:16.632Z,93.50
2023-05-20T19:13:43.423Z,93.80
2023-05-20T19:16:10.577Z,94.30
2023-05-20T19:18:37.405Z,94.20
2023-05-20T19:21:04.385Z,94.40
2023-05-20T19:23:32.370Z,94.70
2023-05-20T19:25:59.338Z,95.00
2023-05-20T19:28:26.296Z,95.30
2023-05-20T19:30:53.352Z,95.50
2023-05-20T19:33:20.965Z,95.90
2023-05-20T19:35:47.858Z,96.00
2023-05-20T19:38:14.930Z,96.20
2023-05-20T19:40:42.681Z,96.70
2023-05-20T19:43:09.464Z,96.80
2023-05-20T19:45:36.794Z,97.00
2023-05-20T19:48:04.417Z,97.20
2023-05-20T19:50:31.659Z,97.50
2023-05-20T19:52:58.771Z,97.70
2023-05-20T19:55:25.954Z,98.10
2023-05-20T19:57:53.545Z,98.30
2023-05-20T20:00:21.329Z,98.40
2023-05-20T20:02:48.841Z,99.00
2023-05-20T20:05:16.001Z,99.10
2023-05-20T20:07:42.838Z,99.30
2023-05-20T20:10:10.486Z,99.70
2023-05-20T20:12:37.283Z,99.90
2023-05-20T20:15:04.862Z,99.90
2023-05-20T20:17:33.720Z,99.90
2023-05-20T20:20:00.901Z,99.90
2023-05-20T20:22:27.893Z,99.90
2023-05-20T20:24:54.714Z,99.90
2023-05-20T20:27:23.656Z,99.90
2023-05-20T20:29:50.672Z,99.90
2023-05-20T20:32:17.513Z,99.90
2023-05-20T20:34:45.888Z,99.90
2023-05-20T20:37:14.975Z,99.90
2023-05-20T20:39:42.160Z,99.90
2023-05-20T20:42:08.907Z,99.90
2023-05-20T20:44:35.672Z,99.90
2023-05-20T20:47:04.373Z,99.90
2023-05-20T20:49:32.216Z,99.90
2023-05-20T20:51:59.271Z,99.90
2023-05-20T20:54:26.398Z,99.90
2023-05-20T20:56:56.694Z,99.90
2023-05-20T20:59:26.422Z,99.90
2023-05-20T21:01:53.981Z,99.90
2023-05-20T21:04:21.518Z,99.90
2023-05-20T21:06:48.439Z,99.90
2023-05-20T21:09:15.869Z,99.90
2023-05-20T21:11:43.260Z,99.90
2023-05-20T21:14:10.470Z,99.90
2023-05-20T21:16:37.762Z,99.90
2023-05-20T21:19:04.844Z,99.90
2023-05-20T21:21:31.978Z,99.90
2023-05-20T21:23:58.841Z,99.90
2023-05-20T21:26:25.821Z,99.90
2023-05-20T21:28:53.005Z,99.90
2023-05-20T21:31:20.131Z,99.90
2023-05-20T21:33:46.994Z,99.90
2023-05-20T21:36:13.788Z,99.90
2023-05-20T21:38:40.581Z,99.90
2023-05-20T21:41:07.660Z,99.90
2023-05-20T21:43:35.916Z,99.90
2023-05-20T21:46:03.002Z,99.90
2023-05-20T21:48:29.794Z,99.90
2023-05-20T21:50:56.649Z,99.90
2023-05-20T21:53:23.441Z,99.90
2023-05-20T21:55:50.553Z,99.90
2023-05-20T21:58:17.374Z,99.90
2023-05-20T22:00:45.081Z,99.90
2023-05-20T22:03:13.005Z,99.90
2023-05-20T22:05:40.933Z,99.90
2023-05-20T22:08:07.858Z,99.90
2023-05-20T22:10:36.479Z,99.90
2023-05-20T22:13:03.353Z,99.90
2023-05-20T22:15:30.553Z,99.90
2023-05-20T22:17:57.551Z,99.90
2023-05-20T22:20:25.227Z,99.90
2023-05-20T22:22:52.046Z,99.90
2023-05-20T22:25:18.790Z,99.90
2023-05-20T22:27:45.727Z,99.90
2023-05-20T22:30:13.262Z,99.90
2023-05-20T22:32:40.805Z,99.90
2023-05-20T22:35:08.284Z,99.90
2023-05-20T22:37:35.408Z,99.90
2023-05-20T22:40:02.158Z,99.90
2023-05-20T22:42:29.023Z,99.90
2023-05-20T22:44:55.817Z,99.90
2023-05-20T22:47:22.709Z,99.90
2023-05-20T22:49:49.516Z,99.90
2023-05-20T22:52:16.292Z,99.90
2023-05-20T22:54:43.060Z,99.90
2023-05-20T22:57:09.788Z,99.90
2023-05-20T22:59:36.608Z,99.90
2023-05-20T23:02:04.414Z,99.90
2023-05-20T23:04:31.253Z,99.90
2023-05-20T23:06:59.522Z,99.90
2023-05-20T23:09:26.495Z,99.90
2023-05-20T23:11:53.348Z,99.90
2023-05-20T23:14:20.404Z,99.90
2023-05-20T23:16:47.349Z,99.90
2023-05-20T23:19:14.572Z,99.90
2023-05-20T23:21:41.439Z,99.90
2023-05-20T23:24:08.503Z,99.90
2023-05-20T23:26:37.764Z,99.90
2023-05-20T23:29:05.278Z,99.90
2023-05-20T23:31:32.943Z,99.90
2023-05-20T23:34:01.060Z,99.90
2023-05-20T23:36:29.157Z,99.90
2023-05-20T23:38:56.531Z,99.90
2023-05-20T23:41:23.663Z,99.90
2023-05-20T23:43:50.760Z,99.90
2023-05-20T23:46:18.583Z,99.90
2023-05-20T23:48:48.330Z,99.90
2023-05-20T23:51:16.371Z,99.90
2023-05-20T23:53:45.047Z,99.90
2023-05-20T23:56:11.892Z,99.90
2023-05-20T23:58:38.733Z,99.90
